Погода Печенкина неделю

Могилёвская область, Белоруссия

23 - 29 мая
  • 23мая
    Сегодня
    +10°
    +23°
    Практически безоблачно
    ВремяПогодаТемператураВлажностьДавлениеВетер, м/сВероятность осадков
    00:00Практически безоблачно+15°C90 %749 мм2.7 м/с2 %
    03:00Ясно и безоблачно+14°C95 %749 мм2.7 м/с2 %
    06:00Ясно и безоблачно+13°C93 %750 мм3.6 м/с2 %
    09:00Ясно и безоблачно+18°C72 %751 мм3.8 м/с2 %
    12:00Ясно и безоблачно+21°C56 %751 мм5.5 м/с2 %
    15:00Практически безоблачно+23°C50 %752 мм5.3 м/с3 %
    18:00Практически безоблачно+23°C48 %752 мм4.6 м/с7 %
    21:00Ясно и безоблачно+18°C51 %752 мм4.0 м/с2 %
  • 24мая
    Пятница
    +8°
    +21°
    Ясно и безоблачно
    ВремяПогодаТемператураВлажностьДавлениеВетер, м/сВероятность осадков
    00:00Ясно и безоблачно+15°C55 %754 мм3.7 м/с2 %
    03:00Ясно и безоблачно+12°C61 %754 мм3.6 м/с2 %
    06:00Ясно и безоблачно+11°C61 %755 мм4.0 м/с2 %
    09:00Ясно и безоблачно+15°C54 %756 мм4.2 м/с2 %
    12:00Ясно и безоблачно+18°C44 %756 мм4.9 м/с2 %
    15:00Ясно и безоблачно+20°C40 %755 мм4.9 м/с2 %
    18:00Ясно и безоблачно+21°C41 %755 мм4.1 м/с2 %
    21:00Ясно и безоблачно+16°C57 %754 мм2.9 м/с2 %
  • 25мая
    Суббота
    +9°
    +21°
    Ясно и безоблачно
    ВремяПогодаТемператураВлажностьДавлениеВетер, м/сВероятность осадков
    00:00Ясно и безоблачно+12°C62 %755 мм2.9 м/с2 %
    03:00Ясно и безоблачно+11°C68 %755 мм2.5 м/с2 %
    06:00Ясно и безоблачно+10°C68 %755 мм2.9 м/с2 %
    09:00Ясно и безоблачно+16°C53 %754 мм2.9 м/с2 %
    12:00Ясно и безоблачно+21°C45 %754 мм4.0 м/с2 %
    15:00Ясно и безоблачно+21°C39 %754 мм3.9 м/с2 %
    18:00Ясно и безоблачно+23°C40 %752 мм3.2 м/с5 %
    21:00Ясно и безоблачно+17°C62 %752 мм2.2 м/с2 %
  • 26мая
    Воскресенье
    +10°
    +23°
    Облачно с прояснениями
    ВремяПогодаТемператураВлажностьДавлениеВетер, м/сВероятность осадков
    00:00Ясно и безоблачно+12°C73 %752 мм2.0 м/с2 %
    03:00Облачно с прояснениями+10°C81 %752 мм1.6 м/с2 %
    06:00Ясно и безоблачно+10°C79 %751 мм1.7 м/с2 %
    09:00Небольшая облачность+18°C59 %752 мм1.0 м/с2 %
    12:00Облачно с прояснениями+21°C38 %752 мм2.0 м/с2 %
    15:00Облачно с прояснениями+22°C38 %752 мм1.7 м/с4 %
    18:00Ясно и безоблачно+24°C38 %751 мм1.6 м/с2 %
    21:00Ясно и безоблачно+19°C44 %751 мм0.7 м/с2 %
Мы используем cookies
Соглашаюсь